createdAt,value
2018-07-21T00:00:45.900Z,3.63
2018-07-21T00:05:39.150Z,4.03
2018-07-21T00:10:32.378Z,4.97
2018-07-21T00:15:25.566Z,3.80
2018-07-21T00:20:18.833Z,4.03
2018-07-21T00:25:12.118Z,3.60
2018-07-21T00:30:05.603Z,4.20
2018-07-21T00:34:58.885Z,3.57
2018-07-21T00:39:52.157Z,4.03
2018-07-21T00:44:45.437Z,3.80
2018-07-21T00:49:38.669Z,3.80
2018-07-21T00:54:31.915Z,3.77
2018-07-21T00:59:25.239Z,3.93
2018-07-21T01:04:18.514Z,3.95
2018-07-21T01:09:11.793Z,3.60
2018-07-21T01:14:05.371Z,3.75
2018-07-21T01:18:58.583Z,3.20
2018-07-21T01:23:51.829Z,3.77
2018-07-21T01:28:45.071Z,3.30
2018-07-21T01:33:38.282Z,3.93
2018-07-21T01:38:31.575Z,3.77
2018-07-21T01:43:24.885Z,3.50
2018-07-21T01:48:18.159Z,3.92
2018-07-21T01:53:11.372Z,3.83
2018-07-21T01:58:04.908Z,3.55
2018-07-21T02:02:58.141Z,3.73
2018-07-21T02:07:51.393Z,3.40
2018-07-21T02:12:44.737Z,3.70
2018-07-21T02:17:37.952Z,3.77
2018-07-21T02:22:31.206Z,3.70
2018-07-21T02:27:24.510Z,3.70
2018-07-21T02:32:17.728Z,3.85
2018-07-21T02:37:13.406Z,3.60
2018-07-21T02:42:06.693Z,3.60
2018-07-21T02:46:59.964Z,3.80
2018-07-21T02:51:53.176Z,3.50
2018-07-21T02:56:46.432Z,3.80
2018-07-21T03:01:39.693Z,3.83
2018-07-21T03:06:32.977Z,4.42
2018-07-21T03:11:26.262Z,3.70
2018-07-21T03:16:19.518Z,4.42
2018-07-21T03:21:12.750Z,4.50
2018-07-21T03:26:05.920Z,4.15
2018-07-21T03:30:59.176Z,4.50
2018-07-21T03:35:52.798Z,4.50
2018-07-21T03:40:45.955Z,4.37
2018-07-21T03:45:39.192Z,5.08
2018-07-21T03:50:33.202Z,4.63
2018-07-21T03:55:26.438Z,4.93
2018-07-21T04:00:19.681Z,5.23
2018-07-21T04:05:12.960Z,5.80
2018-07-21T04:10:06.166Z,5.80
2018-07-21T04:14:59.423Z,6.25
2018-07-21T04:19:52.879Z,6.00
2018-07-21T04:24:46.098Z,5.33
2018-07-21T04:29:39.330Z,5.00
2018-07-21T04:34:32.450Z,5.20
2018-07-21T04:39:25.692Z,5.70
2018-07-21T04:44:18.943Z,5.10
2018-07-21T04:49:12.173Z,5.15
2018-07-21T04:54:05.402Z,5.00
2018-07-21T04:58:58.540Z,5.28
2018-07-21T05:03:51.877Z,5.37
2018-07-21T05:08:45.878Z,5.03
2018-07-21T05:13:39.843Z,6.33
2018-07-21T05:18:33.098Z,8.47
2018-07-21T05:23:26.534Z,6.67
2018-07-21T05:28:19.758Z,6.17
2018-07-21T05:33:13.024Z,5.70
2018-07-21T05:38:06.318Z,5.97
2018-07-21T05:42:59.483Z,6.40
2018-07-21T05:47:52.626Z,6.43
2018-07-21T05:52:45.917Z,8.73
2018-07-21T05:57:39.192Z,7.00
2018-07-21T06:02:32.469Z,7.10
2018-07-21T06:07:25.840Z,6.97
2018-07-21T06:12:22.090Z,8.00
2018-07-21T06:17:15.247Z,8.73
2018-07-21T06:22:08.487Z,8.70
2018-07-21T06:27:01.744Z,7.33
2018-07-21T06:31:56.053Z,7.63
2018-07-21T06:36:49.335Z,7.50
2018-07-21T06:41:42.666Z,7.12
2018-07-21T06:46:36.174Z,7.23
2018-07-21T06:51:30.309Z,7.30
2018-07-21T06:56:23.693Z,6.43
2018-07-21T07:01:17.212Z,6.97
2018-07-21T07:06:10.376Z,7.57
2018-07-21T07:11:03.554Z,7.20
2018-07-21T07:15:56.701Z,7.00
2018-07-21T07:20:50.061Z,7.17
2018-07-21T07:25:43.298Z,7.90
2018-07-21T07:30:36.589Z,7.33
2018-07-21T07:35:30.186Z,9.10
2018-07-21T07:40:23.485Z,7.87
2018-07-21T07:45:16.741Z,8.30
2018-07-21T07:50:09.988Z,7.90
2018-07-21T07:55:03.225Z,9.80
2018-07-21T07:59:56.496Z,8.57
2018-07-21T08:04:49.863Z,10.00
2018-07-21T08:09:43.123Z,9.90
2018-07-21T08:14:36.341Z,8.50
2018-07-21T08:19:29.745Z,7.20
2018-07-21T08:24:22.948Z,8.27
2018-07-21T08:29:16.296Z,7.20
2018-07-21T08:34:09.625Z,9.13
2018-07-21T08:39:03.050Z,7.90
2018-07-21T08:43:56.374Z,7.30
2018-07-21T08:48:49.640Z,9.43
2018-07-21T08:53:45.054Z,7.50
2018-07-21T08:58:38.303Z,7.47
2018-07-21T09:03:31.534Z,7.75
2018-07-21T09:08:24.774Z,7.57
2018-07-21T09:13:18.016Z,8.68
2018-07-21T09:18:11.248Z,6.60
2018-07-21T09:23:04.585Z,7.62
2018-07-21T09:27:57.822Z,7.33
2018-07-21T09:32:51.197Z,8.18
2018-07-21T09:37:44.332Z,6.90
2018-07-21T09:42:37.536Z,7.17
2018-07-21T09:47:30.732Z,7.27
2018-07-21T09:52:23.960Z,6.93
2018-07-21T09:57:17.197Z,6.00
2018-07-21T10:02:10.469Z,6.50
2018-07-21T10:07:04.002Z,8.20
2018-07-21T10:11:57.291Z,6.30
2018-07-21T10:16:50.442Z,6.83
2018-07-21T10:21:43.758Z,6.50
2018-07-21T10:26:42.670Z,8.50
2018-07-21T10:31:36.362Z,7.07
2018-07-21T10:36:29.593Z,7.97
2018-07-21T10:41:22.884Z,7.33
2018-07-21T10:46:16.288Z,7.00
2018-07-21T10:51:09.561Z,6.87
2018-07-21T10:56:02.815Z,5.90
2018-07-21T11:00:56.069Z,5.23
2018-07-21T11:05:49.631Z,6.40
2018-07-21T11:10:42.995Z,5.23
2018-07-21T11:15:36.324Z,4.93
2018-07-21T11:20:29.496Z,5.80
2018-07-21T11:25:23.091Z,5.43
2018-07-21T11:30:16.311Z,5.97
2018-07-21T11:35:09.611Z,5.43
2018-07-21T11:40:03.062Z,5.13
2018-07-21T11:44:56.315Z,5.83
2018-07-21T11:49:49.576Z,4.73
2018-07-21T11:54:43.304Z,8.05
2018-07-21T11:59:36.532Z,5.08
2018-07-21T12:04:30.473Z,5.87
2018-07-21T12:09:23.906Z,5.80
2018-07-21T12:14:17.113Z,5.43
2018-07-21T12:19:10.343Z,7.00
2018-07-21T12:24:03.899Z,6.10
2018-07-21T12:28:57.201Z,6.57
2018-07-21T12:33:50.447Z,6.13
2018-07-21T12:38:43.666Z,5.70
2018-07-21T12:43:36.977Z,6.43
2018-07-21T12:48:30.243Z,5.60
2018-07-21T12:53:23.518Z,5.45
2018-07-21T12:58:16.763Z,5.80
2018-07-21T13:03:09.986Z,5.97
2018-07-21T13:08:03.359Z,8.77
2018-07-21T13:12:56.585Z,6.12
2018-07-21T13:17:49.909Z,5.97
2018-07-21T13:22:43.123Z,5.90
2018-07-21T13:27:36.498Z,6.47
2018-07-21T13:32:29.728Z,6.77
2018-07-21T13:37:22.987Z,6.55
2018-07-21T13:42:16.203Z,7.33
2018-07-21T13:47:09.350Z,6.97
2018-07-21T13:52:02.582Z,7.83
2018-07-21T13:56:55.838Z,6.83
2018-07-21T14:01:49.022Z,6.90
2018-07-21T14:06:42.263Z,7.45
2018-07-21T14:11:35.500Z,7.10
2018-07-21T14:16:28.729Z,6.55
2018-07-21T14:21:21.875Z,6.77
2018-07-21T14:26:15.123Z,7.20
2018-07-21T14:31:08.477Z,6.80
2018-07-21T14:36:01.707Z,7.03
2018-07-21T14:40:54.953Z,8.00
2018-07-21T14:45:48.235Z,6.28
2018-07-21T14:50:41.483Z,7.90
2018-07-21T14:55:34.785Z,7.65
2018-07-21T15:00:28.106Z,7.00
2018-07-21T15:05:21.683Z,10.38
2018-07-21T15:10:14.819Z,6.47
2018-07-21T15:15:08.141Z,7.50
2018-07-21T15:20:01.392Z,6.90
2018-07-21T15:24:54.687Z,7.33
2018-07-21T15:29:47.983Z,7.13
2018-07-21T15:34:41.294Z,7.85
2018-07-21T15:39:34.595Z,7.33
2018-07-21T15:44:27.895Z,6.70
2018-07-21T15:49:21.147Z,7.00
2018-07-21T15:54:14.353Z,6.83
2018-07-21T15:59:07.996Z,5.90
2018-07-21T16:04:01.211Z,5.53
2018-07-21T16:08:54.465Z,5.57
2018-07-21T16:13:47.589Z,6.17
2018-07-21T16:18:40.823Z,6.23
2018-07-21T16:23:34.096Z,7.85
2018-07-21T16:28:27.409Z,7.03
2018-07-21T16:33:20.695Z,6.97
2018-07-21T16:38:13.962Z,6.53
2018-07-21T16:43:07.309Z,6.58
2018-07-21T16:48:00.551Z,6.47
2018-07-21T16:52:54.625Z,7.42
2018-07-21T16:57:50.108Z,7.60
2018-07-21T17:02:44.793Z,8.33
2018-07-21T17:07:39.675Z,7.70
2018-07-21T17:12:34.574Z,7.87
2018-07-21T17:17:29.189Z,8.60
2018-07-21T17:22:22.390Z,6.70
2018-07-21T17:27:15.803Z,7.50
2018-07-21T17:32:09.084Z,8.80
2018-07-21T17:37:02.385Z,8.18
2018-07-21T17:41:56.517Z,8.60
2018-07-21T17:46:49.684Z,8.63
2018-07-21T17:51:43.253Z,7.97
2018-07-21T17:56:36.545Z,8.17
2018-07-21T18:01:29.698Z,8.67
2018-07-21T18:06:22.927Z,8.83
2018-07-21T18:11:16.222Z,8.70
2018-07-21T18:16:09.533Z,9.20
2018-07-21T18:21:02.706Z,8.83
2018-07-21T18:25:56.058Z,9.17
2018-07-21T18:30:49.435Z,10.65
2018-07-21T18:35:42.669Z,10.10
2018-07-21T18:40:35.997Z,10.13
2018-07-21T18:45:31.542Z,10.07
2018-07-21T18:50:24.908Z,9.63
2018-07-21T18:55:19.163Z,9.40
2018-07-21T19:00:12.453Z,9.97
2018-07-21T19:05:05.807Z,9.93
2018-07-21T19:09:59.062Z,9.70
2018-07-21T19:14:52.291Z,9.65
2018-07-21T19:19:51.418Z,10.37
2018-07-21T19:24:44.562Z,10.87
2018-07-21T19:29:37.973Z,10.83
2018-07-21T19:34:31.210Z,11.57
2018-07-21T19:39:25.484Z,10.93
2018-07-21T19:44:18.701Z,10.77
2018-07-21T19:49:16.913Z,10.72
2018-07-21T19:54:10.103Z,10.00
2018-07-21T19:59:03.996Z,10.53
2018-07-21T20:03:57.486Z,9.98
2018-07-21T20:08:50.734Z,10.00
2018-07-21T20:13:43.942Z,10.50
2018-07-21T20:18:37.805Z,10.07
2018-07-21T20:23:31.980Z,10.73
2018-07-21T20:28:26.522Z,9.80
2018-07-21T20:33:21.382Z,9.10
2018-07-21T20:38:15.226Z,9.10
2018-07-21T20:43:08.481Z,8.80
2018-07-21T20:48:01.786Z,8.75
2018-07-21T20:52:54.993Z,9.43
2018-07-21T20:57:48.287Z,8.78
2018-07-21T21:02:41.551Z,12.03
2018-07-21T21:07:34.771Z,11.60
2018-07-21T21:12:27.999Z,10.63
2018-07-21T21:17:21.256Z,9.48
2018-07-21T21:22:14.565Z,10.07
2018-07-21T21:27:08.353Z,10.00
2018-07-21T21:32:01.557Z,9.53
2018-07-21T21:36:54.801Z,9.73
2018-07-21T21:41:48.091Z,8.88
2018-07-21T21:46:41.315Z,9.37
2018-07-21T21:51:34.575Z,9.13
2018-07-21T21:56:27.839Z,9.10
2018-07-21T22:01:21.166Z,9.05
2018-07-21T22:06:14.479Z,8.30
2018-07-21T22:11:07.629Z,8.70
2018-07-21T22:16:00.966Z,8.57
2018-07-21T22:20:54.243Z,8.18
2018-07-21T22:25:47.468Z,7.47
2018-07-21T22:30:40.599Z,7.35
2018-07-21T22:35:33.834Z,6.97
2018-07-21T22:40:27.134Z,7.23
2018-07-21T22:45:20.348Z,6.27
2018-07-21T22:50:13.612Z,7.00
2018-07-21T22:55:06.850Z,6.87
2018-07-21T23:00:00.285Z,6.30
2018-07-21T23:04:53.437Z,6.60
2018-07-21T23:09:46.684Z,6.37
2018-07-21T23:14:39.911Z,6.93
2018-07-21T23:19:33.179Z,6.28
2018-07-21T23:24:26.307Z,6.00
2018-07-21T23:29:19.572Z,6.53
2018-07-21T23:34:12.863Z,6.97
2018-07-21T23:39:09.259Z,6.42
2018-07-21T23:44:03.520Z,7.33
2018-07-21T23:48:56.778Z,7.20
2018-07-21T23:53:50.065Z,6.50
2018-07-21T23:58:43.298Z,7.60
